LIPX

Verona Villafranca Airport

Verona, Italy
TAF LIPX 140200Z 1403/1412 VRB05KT CAVOK
Issued Valid From Valid To
Dec-14 @ 02:00 UTC
(an hour ago)
Dec-14 @ 03:00 UTC
(4 minutes ago)
Dec-14 @ 12:00 UTC
(in 9 hours)
Dec-14 @ 03:00 to Dec-14 @ 12:00
TAF LIPX 140200Z 1403/1412 VRB05KT CAVOK
Wind Visibility Clouds Conditions
Variable at 5 knots 10,000+ meters
  • No significant clouds
TAF LIPX 140200Z 1403/1412 VRB05KT CAVOK
Issued Dec-14 @ 02:00 UTC
(an hour ago)
Valid From Dec-14 @ 03:00 UTC
(4 minutes ago)
Valid To Dec-14 @ 12:00 UTC
(in 9 hours)
Dec-14 @ 03:00 - Dec-14 @ 12:00
Wind Visibility
Variable at 5 knots 10,000+ meters
Clouds
  • No significant clouds
Conditions